sensor_id;sensor_type;location;lat;lon;timestamp;P1;durP1;ratioP1;P2;durP2;ratioP2
52838;SDS011;39219;53.678;9.856;2023-08-06T00:00:22;7.28;;;4.38;;
52838;SDS011;39219;53.678;9.856;2023-08-06T00:02:48;9.27;;;5.38;;
52838;SDS011;39219;53.678;9.856;2023-08-06T00:05:15;7.32;;;4.60;;
52838;SDS011;39219;53.678;9.856;2023-08-06T00:07:43;7.35;;;4.47;;
52838;SDS011;39219;53.678;9.856;2023-08-06T00:10:09;8.15;;;4.75;;
52838;SDS011;39219;53.678;9.856;2023-08-06T00:12:37;9.13;;;4.80;;
52838;SDS011;39219;53.678;9.856;2023-08-06T00:15:03;7.90;;;5.00;;
52838;SDS011;39219;53.678;9.856;2023-08-06T00:17:29;7.80;;;4.80;;
52838;SDS011;39219;53.678;9.856;2023-08-06T00:19:56;8.40;;;4.93;;
52838;SDS011;39219;53.678;9.856;2023-08-06T00:22:22;8.88;;;5.13;;
52838;SDS011;39219;53.678;9.856;2023-08-06T00:24:48;6.97;;;4.90;;
52838;SDS011;39219;53.678;9.856;2023-08-06T00:27:14;8.25;;;5.05;;
52838;SDS011;39219;53.678;9.856;2023-08-06T00:29:42;9.23;;;5.60;;
52838;SDS011;39219;53.678;9.856;2023-08-06T00:32:08;10.45;;;5.93;;
52838;SDS011;39219;53.678;9.856;2023-08-06T00:34:35;9.77;;;5.97;;
52838;SDS011;39219;53.678;9.856;2023-08-06T00:37:01;8.60;;;5.45;;
52838;SDS011;39219;53.678;9.856;2023-08-06T00:39:27;9.88;;;6.15;;
52838;SDS011;39219;53.678;9.856;2023-08-06T00:41:54;8.88;;;5.88;;
52838;SDS011;39219;53.678;9.856;2023-08-06T00:44:20;10.25;;;6.28;;
52838;SDS011;39219;53.678;9.856;2023-08-06T00:46:48;10.18;;;6.10;;
52838;SDS011;39219;53.678;9.856;2023-08-06T00:49:14;10.70;;;5.97;;
52838;SDS011;39219;53.678;9.856;2023-08-06T00:51:40;8.45;;;5.40;;
52838;SDS011;39219;53.678;9.856;2023-08-06T00:54:07;13.18;;;6.63;;
52838;SDS011;39219;53.678;9.856;2023-08-06T00:56:34;9.00;;;5.43;;
52838;SDS011;39219;53.678;9.856;2023-08-06T00:59:01;9.07;;;5.45;;
52838;SDS011;39219;53.678;9.856;2023-08-06T01:01:28;9.30;;;5.75;;
52838;SDS011;39219;53.678;9.856;2023-08-06T01:03:55;8.57;;;5.30;;
52838;SDS011;39219;53.678;9.856;2023-08-06T01:06:29;10.00;;;5.40;;
52838;SDS011;39219;53.678;9.856;2023-08-06T01:08:58;9.05;;;5.93;;
52838;SDS011;39219;53.678;9.856;2023-08-06T01:11:26;10.40;;;5.80;;
52838;SDS011;39219;53.678;9.856;2023-08-06T01:13:54;9.68;;;5.90;;
52838;SDS011;39219;53.678;9.856;2023-08-06T01:16:22;9.45;;;5.70;;
52838;SDS011;39219;53.678;9.856;2023-08-06T01:18:50;11.75;;;5.60;;
52838;SDS011;39219;53.678;9.856;2023-08-06T01:21:18;9.98;;;5.65;;
52838;SDS011;39219;53.678;9.856;2023-08-06T01:23:44;8.40;;;5.03;;
52838;SDS011;39219;53.678;9.856;2023-08-06T01:26:12;8.27;;;5.22;;
52838;SDS011;39219;53.678;9.856;2023-08-06T01:28:42;9.32;;;5.18;;
52838;SDS011;39219;53.678;9.856;2023-08-06T01:31:10;8.88;;;5.43;;
52838;SDS011;39219;53.678;9.856;2023-08-06T01:33:42;8.85;;;5.22;;
52838;SDS011;39219;53.678;9.856;2023-08-06T01:36:09;8.00;;;5.22;;
52838;SDS011;39219;53.678;9.856;2023-08-06T01:38:37;8.68;;;5.35;;
52838;SDS011;39219;53.678;9.856;2023-08-06T01:41:04;9.50;;;5.45;;
52838;SDS011;39219;53.678;9.856;2023-08-06T01:43:30;10.40;;;5.90;;
52838;SDS011;39219;53.678;9.856;2023-08-06T01:45:56;8.75;;;5.50;;
52838;SDS011;39219;53.678;9.856;2023-08-06T01:48:22;11.13;;;6.43;;
52838;SDS011;39219;53.678;9.856;2023-08-06T01:50:49;9.95;;;5.88;;
52838;SDS011;39219;53.678;9.856;2023-08-06T01:53:15;10.15;;;6.07;;
52838;SDS011;39219;53.678;9.856;2023-08-06T01:55:47;9.45;;;5.88;;
52838;SDS011;39219;53.678;9.856;2023-08-06T01:58:15;9.80;;;5.45;;
52838;SDS011;39219;53.678;9.856;2023-08-06T02:00:41;9.80;;;5.80;;
52838;SDS011;39219;53.678;9.856;2023-08-06T02:03:07;10.10;;;6.13;;
52838;SDS011;39219;53.678;9.856;2023-08-06T02:05:34;10.52;;;6.10;;
52838;SDS011;39219;53.678;9.856;2023-08-06T02:08:00;8.35;;;4.93;;
52838;SDS011;39219;53.678;9.856;2023-08-06T02:10:26;9.07;;;5.90;;
52838;SDS011;39219;53.678;9.856;2023-08-06T02:12:54;9.38;;;5.70;;
52838;SDS011;39219;53.678;9.856;2023-08-06T02:15:20;8.43;;;5.40;;
52838;SDS011;39219;53.678;9.856;2023-08-06T02:17:46;8.75;;;5.63;;
52838;SDS011;39219;53.678;9.856;2023-08-06T02:20:13;8.90;;;5.10;;
52838;SDS011;39219;53.678;9.856;2023-08-06T02:22:39;8.50;;;5.43;;
52838;SDS011;39219;53.678;9.856;2023-08-06T02:25:05;7.88;;;4.90;;
52838;SDS011;39219;53.678;9.856;2023-08-06T02:27:32;9.52;;;5.30;;
52838;SDS011;39219;53.678;9.856;2023-08-06T02:29:59;8.80;;;5.05;;
52838;SDS011;39219;53.678;9.856;2023-08-06T02:32:26;8.20;;;5.20;;
52838;SDS011;39219;53.678;9.856;2023-08-06T02:34:54;7.32;;;4.72;;
52838;SDS011;39219;53.678;9.856;2023-08-06T02:37:20;6.55;;;4.40;;
52838;SDS011;39219;53.678;9.856;2023-08-06T02:39:46;7.88;;;5.05;;
52838;SDS011;39219;53.678;9.856;2023-08-06T02:42:13;8.15;;;4.72;;
52838;SDS011;39219;53.678;9.856;2023-08-06T02:44:39;8.05;;;4.65;;
52838;SDS011;39219;53.678;9.856;2023-08-06T02:47:07;7.65;;;4.60;;
52838;SDS011;39219;53.678;9.856;2023-08-06T02:49:33;7.95;;;4.97;;
52838;SDS011;39219;53.678;9.856;2023-08-06T02:51:59;7.75;;;4.25;;
52838;SDS011;39219;53.678;9.856;2023-08-06T02:54:25;7.43;;;4.47;;
52838;SDS011;39219;53.678;9.856;2023-08-06T02:56:52;8.98;;;5.05;;
52838;SDS011;39219;53.678;9.856;2023-08-06T02:59:18;8.63;;;4.68;;
52838;SDS011;39219;53.678;9.856;2023-08-06T03:01:44;7.15;;;4.60;;
52838;SDS011;39219;53.678;9.856;2023-08-06T03:04:12;8.73;;;5.03;;
52838;SDS011;39219;53.678;9.856;2023-08-06T03:06:38;7.40;;;4.78;;
52838;SDS011;39219;53.678;9.856;2023-08-06T03:09:04;8.52;;;4.75;;
52838;SDS011;39219;53.678;9.856;2023-08-06T03:11:31;7.45;;;4.70;;
52838;SDS011;39219;53.678;9.856;2023-08-06T03:13:57;8.00;;;4.93;;
52838;SDS011;39219;53.678;9.856;2023-08-06T03:16:23;8.52;;;4.90;;
52838;SDS011;39219;53.678;9.856;2023-08-06T03:18:49;7.53;;;4.68;;
52838;SDS011;39219;53.678;9.856;2023-08-06T03:21:17;8.88;;;5.00;;
52838;SDS011;39219;53.678;9.856;2023-08-06T03:23:46;7.47;;;4.60;;
52838;SDS011;39219;53.678;9.856;2023-08-06T03:26:12;7.05;;;4.45;;
52838;SDS011;39219;53.678;9.856;2023-08-06T03:28:38;7.65;;;4.80;;
52838;SDS011;39219;53.678;9.856;2023-08-06T03:31:05;7.72;;;4.68;;
52838;SDS011;39219;53.678;9.856;2023-08-06T03:33:31;7.63;;;4.80;;
52838;SDS011;39219;53.678;9.856;2023-08-06T03:35:57;7.05;;;4.40;;
52838;SDS011;39219;53.678;9.856;2023-08-06T03:38:25;8.63;;;4.72;;
52838;SDS011;39219;53.678;9.856;2023-08-06T03:40:52;6.15;;;4.35;;
52838;SDS011;39219;53.678;9.856;2023-08-06T03:43:19;7.63;;;4.35;;
52838;SDS011;39219;53.678;9.856;2023-08-06T03:45:45;7.82;;;4.63;;
52838;SDS011;39219;53.678;9.856;2023-08-06T03:48:11;9.55;;;4.88;;
52838;SDS011;39219;53.678;9.856;2023-08-06T03:50:37;8.00;;;4.80;;
52838;SDS011;39219;53.678;9.856;2023-08-06T03:53:04;10.60;;;5.18;;
52838;SDS011;39219;53.678;9.856;2023-08-06T03:55:31;8.18;;;4.88;;
52838;SDS011;39219;53.678;9.856;2023-08-06T03:57:58;8.15;;;4.88;;
52838;SDS011;39219;53.678;9.856;2023-08-06T04:00:24;8.43;;;5.20;;
52838;SDS011;39219;53.678;9.856;2023-08-06T04:02:50;9.35;;;5.05;;
52838;SDS011;39219;53.678;9.856;2023-08-06T04:05:16;8.00;;;5.25;;
52838;SDS011;39219;53.678;9.856;2023-08-06T04:07:43;9.57;;;5.60;;
52838;SDS011;39219;53.678;9.856;2023-08-06T04:10:09;8.82;;;5.25;;
52838;SDS011;39219;53.678;9.856;2023-08-06T04:12:37;9.23;;;5.20;;
52838;SDS011;39219;53.678;9.856;2023-08-06T04:15:04;9.18;;;5.07;;
52838;SDS011;39219;53.678;9.856;2023-08-06T04:17:31;8.85;;;4.80;;
52838;SDS011;39219;53.678;9.856;2023-08-06T04:19:57;9.45;;;5.50;;
52838;SDS011;39219;53.678;9.856;2023-08-06T04:22:24;9.68;;;5.15;;
52838;SDS011;39219;53.678;9.856;2023-08-06T04:24:50;8.05;;;4.70;;
52838;SDS011;39219;53.678;9.856;2023-08-06T04:27:17;10.20;;;5.13;;
52838;SDS011;39219;53.678;9.856;2023-08-06T04:29:45;9.48;;;5.47;;
52838;SDS011;39219;53.678;9.856;2023-08-06T04:32:11;9.70;;;4.80;;
52838;SDS011;39219;53.678;9.856;2023-08-06T04:34:38;7.85;;;4.95;;
52838;SDS011;39219;53.678;9.856;2023-08-06T04:37:04;10.00;;;4.97;;
52838;SDS011;39219;53.678;9.856;2023-08-06T04:39:30;10.27;;;5.13;;
52838;SDS011;39219;53.678;9.856;2023-08-06T04:41:57;7.68;;;4.70;;
52838;SDS011;39219;53.678;9.856;2023-08-06T04:44:23;8.70;;;4.88;;
52838;SDS011;39219;53.678;9.856;2023-08-06T04:46:51;9.35;;;4.85;;
52838;SDS011;39219;53.678;9.856;2023-08-06T04:49:17;10.02;;;4.97;;
52838;SDS011;39219;53.678;9.856;2023-08-06T04:51:43;9.10;;;4.88;;
52838;SDS011;39219;53.678;9.856;2023-08-06T04:54:10;8.57;;;4.60;;
52838;SDS011;39219;53.678;9.856;2023-08-06T04:56:36;9.98;;;4.80;;
52838;SDS011;39219;53.678;9.856;2023-08-06T04:59:02;9.00;;;5.13;;
52838;SDS011;39219;53.678;9.856;2023-08-06T05:01:28;10.00;;;4.82;;
52838;SDS011;39219;53.678;9.856;2023-08-06T05:03:56;9.15;;;4.53;;
52838;SDS011;39219;53.678;9.856;2023-08-06T05:06:22;8.13;;;4.97;;
52838;SDS011;39219;53.678;9.856;2023-08-06T05:08:49;11.07;;;5.28;;
52838;SDS011;39219;53.678;9.856;2023-08-06T05:11:15;8.35;;;4.97;;
52838;SDS011;39219;53.678;9.856;2023-08-06T05:13:41;8.32;;;4.88;;
52838;SDS011;39219;53.678;9.856;2023-08-06T05:16:07;10.73;;;4.78;;
52838;SDS011;39219;53.678;9.856;2023-08-06T05:18:34;9.50;;;4.72;;
52838;SDS011;39219;53.678;9.856;2023-08-06T05:21:04;8.85;;;4.57;;
52838;SDS011;39219;53.678;9.856;2023-08-06T05:23:30;8.10;;;4.63;;
52838;SDS011;39219;53.678;9.856;2023-08-06T05:25:56;8.05;;;4.45;;
52838;SDS011;39219;53.678;9.856;2023-08-06T05:28:22;8.73;;;4.57;;
52838;SDS011;39219;53.678;9.856;2023-08-06T05:30:49;11.52;;;4.88;;
52838;SDS011;39219;53.678;9.856;2023-08-06T05:33:15;8.52;;;4.75;;
52838;SDS011;39219;53.678;9.856;2023-08-06T05:35:41;10.00;;;5.00;;
52838;SDS011;39219;53.678;9.856;2023-08-06T05:38:09;9.65;;;5.13;;
52838;SDS011;39219;53.678;9.856;2023-08-06T05:40:35;8.35;;;5.20;;
52838;SDS011;39219;53.678;9.856;2023-08-06T05:43:01;8.65;;;4.60;;
52838;SDS011;39219;53.678;9.856;2023-08-06T05:45:28;9.38;;;5.18;;
52838;SDS011;39219;53.678;9.856;2023-08-06T05:47:54;10.90;;;4.63;;
52838;SDS011;39219;53.678;9.856;2023-08-06T05:50:22;11.35;;;5.20;;
52838;SDS011;39219;53.678;9.856;2023-08-06T05:52:49;8.95;;;4.63;;
52838;SDS011;39219;53.678;9.856;2023-08-06T05:55:16;8.60;;;4.95;;
52838;SDS011;39219;53.678;9.856;2023-08-06T05:57:43;10.57;;;4.60;;
52838;SDS011;39219;53.678;9.856;2023-08-06T06:00:09;9.35;;;4.72;;
52838;SDS011;39219;53.678;9.856;2023-08-06T06:02:36;9.55;;;5.13;;
52838;SDS011;39219;53.678;9.856;2023-08-06T06:05:02;10.30;;;5.13;;
52838;SDS011;39219;53.678;9.856;2023-08-06T06:07:29;7.85;;;5.10;;
52838;SDS011;39219;53.678;9.856;2023-08-06T06:09:55;8.50;;;4.90;;
52838;SDS011;39219;53.678;9.856;2023-08-06T06:12:22;8.68;;;4.88;;
52838;SDS011;39219;53.678;9.856;2023-08-06T06:14:50;10.60;;;4.78;;
52838;SDS011;39219;53.678;9.856;2023-08-06T06:17:17;9.05;;;4.65;;
52838;SDS011;39219;53.678;9.856;2023-08-06T06:19:43;8.35;;;4.80;;
52838;SDS011;39219;53.678;9.856;2023-08-06T06:22:09;10.38;;;4.85;;
52838;SDS011;39219;53.678;9.856;2023-08-06T06:24:35;11.57;;;5.10;;
52838;SDS011;39219;53.678;9.856;2023-08-06T06:27:02;7.40;;;4.80;;
52838;SDS011;39219;53.678;9.856;2023-08-06T06:29:30;10.63;;;5.30;;
52838;SDS011;39219;53.678;9.856;2023-08-06T06:31:56;10.48;;;5.18;;
52838;SDS011;39219;53.678;9.856;2023-08-06T06:34:22;7.97;;;4.82;;
52838;SDS011;39219;53.678;9.856;2023-08-06T06:36:49;8.10;;;5.20;;
52838;SDS011;39219;53.678;9.856;2023-08-06T06:39:15;8.32;;;4.90;;
52838;SDS011;39219;53.678;9.856;2023-08-06T06:41:41;9.45;;;5.20;;
52838;SDS011;39219;53.678;9.856;2023-08-06T06:44:09;10.70;;;4.70;;
52838;SDS011;39219;53.678;9.856;2023-08-06T06:46:37;8.65;;;4.80;;
52838;SDS011;39219;53.678;9.856;2023-08-06T06:49:03;9.40;;;5.25;;
52838;SDS011;39219;53.678;9.856;2023-08-06T06:51:29;9.35;;;5.30;;
52838;SDS011;39219;53.678;9.856;2023-08-06T06:53:56;9.75;;;4.97;;
52838;SDS011;39219;53.678;9.856;2023-08-06T06:56:23;9.15;;;5.18;;
52838;SDS011;39219;53.678;9.856;2023-08-06T06:58:49;9.43;;;5.20;;
52838;SDS011;39219;53.678;9.856;2023-08-06T07:01:15;9.00;;;4.93;;
52838;SDS011;39219;53.678;9.856;2023-08-06T07:03:43;6.65;;;4.28;;
52838;SDS011;39219;53.678;9.856;2023-08-06T07:06:09;8.00;;;5.10;;
52838;SDS011;39219;53.678;9.856;2023-08-06T07:08:37;10.27;;;5.80;;
52838;SDS011;39219;53.678;9.856;2023-08-06T07:11:04;10.23;;;5.30;;
52838;SDS011;39219;53.678;9.856;2023-08-06T07:13:30;11.57;;;5.63;;
52838;SDS011;39219;53.678;9.856;2023-08-06T07:15:57;10.93;;;5.80;;
52838;SDS011;39219;53.678;9.856;2023-08-06T07:18:23;9.40;;;5.78;;
52838;SDS011;39219;53.678;9.856;2023-08-06T07:20:51;10.88;;;5.40;;
52838;SDS011;39219;53.678;9.856;2023-08-06T07:23:18;11.93;;;6.25;;
52838;SDS011;39219;53.678;9.856;2023-08-06T07:25:44;9.80;;;5.90;;
52838;SDS011;39219;53.678;9.856;2023-08-06T07:28:12;11.88;;;5.97;;
52838;SDS011;39219;53.678;9.856;2023-08-06T07:30:39;9.93;;;5.60;;
52838;SDS011;39219;53.678;9.856;2023-08-06T07:33:05;10.57;;;5.60;;
52838;SDS011;39219;53.678;9.856;2023-08-06T07:35:32;10.02;;;5.38;;
52838;SDS011;39219;53.678;9.856;2023-08-06T07:37:59;10.77;;;5.63;;
52838;SDS011;39219;53.678;9.856;2023-08-06T07:40:26;11.52;;;5.68;;
52838;SDS011;39219;53.678;9.856;2023-08-06T07:42:52;11.10;;;5.93;;
52838;SDS011;39219;53.678;9.856;2023-08-06T07:45:18;10.65;;;6.30;;
52838;SDS011;39219;53.678;9.856;2023-08-06T07:47:45;12.48;;;5.85;;
52838;SDS011;39219;53.678;9.856;2023-08-06T07:50:11;10.05;;;5.55;;
52838;SDS011;39219;53.678;9.856;2023-08-06T07:52:38;13.13;;;6.25;;
52838;SDS011;39219;53.678;9.856;2023-08-06T07:55:06;10.05;;;5.60;;
52838;SDS011;39219;53.678;9.856;2023-08-06T07:57:32;13.55;;;6.30;;
52838;SDS011;39219;53.678;9.856;2023-08-06T07:59:59;9.45;;;5.88;;
52838;SDS011;39219;53.678;9.856;2023-08-06T08:02:25;11.23;;;6.00;;
52838;SDS011;39219;53.678;9.856;2023-08-06T08:04:51;10.60;;;5.78;;
52838;SDS011;39219;53.678;9.856;2023-08-06T08:07:18;10.48;;;5.93;;
52838;SDS011;39219;53.678;9.856;2023-08-06T08:09:44;9.23;;;5.55;;
52838;SDS011;39219;53.678;9.856;2023-08-06T08:12:12;10.07;;;5.35;;
52838;SDS011;39219;53.678;9.856;2023-08-06T08:14:38;10.20;;;5.47;;
52838;SDS011;39219;53.678;9.856;2023-08-06T08:17:05;8.82;;;5.38;;
52838;SDS011;39219;53.678;9.856;2023-08-06T08:19:31;9.68;;;5.70;;
52838;SDS011;39219;53.678;9.856;2023-08-06T08:21:58;8.18;;;4.90;;
52838;SDS011;39219;53.678;9.856;2023-08-06T08:24:24;9.93;;;5.40;;
52838;SDS011;39219;53.678;9.856;2023-08-06T08:26:50;10.25;;;5.25;;
52838;SDS011;39219;53.678;9.856;2023-08-06T08:29:18;10.90;;;5.65;;
52838;SDS011;39219;53.678;9.856;2023-08-06T08:31:45;10.60;;;5.35;;
52838;SDS011;39219;53.678;9.856;2023-08-06T08:34:14;8.77;;;5.15;;
52838;SDS011;39219;53.678;9.856;2023-08-06T08:36:40;9.80;;;5.28;;
52838;SDS011;39219;53.678;9.856;2023-08-06T08:39:06;10.00;;;5.47;;
52838;SDS011;39219;53.678;9.856;2023-08-06T08:41:33;8.75;;;4.80;;
52838;SDS011;39219;53.678;9.856;2023-08-06T08:43:59;10.90;;;5.50;;
52838;SDS011;39219;53.678;9.856;2023-08-06T08:46:27;9.43;;;5.05;;
52838;SDS011;39219;53.678;9.856;2023-08-06T08:48:55;8.68;;;4.85;;
52838;SDS011;39219;53.678;9.856;2023-08-06T08:51:22;8.82;;;4.63;;
52838;SDS011;39219;53.678;9.856;2023-08-06T08:53:49;8.35;;;5.07;;
52838;SDS011;39219;53.678;9.856;2023-08-06T08:56:16;8.55;;;5.18;;
52838;SDS011;39219;53.678;9.856;2023-08-06T08:58:42;11.63;;;5.30;;
52838;SDS011;39219;53.678;9.856;2023-08-06T09:01:08;11.18;;;5.38;;
52838;SDS011;39219;53.678;9.856;2023-08-06T09:03:36;7.80;;;4.80;;
52838;SDS011;39219;53.678;9.856;2023-08-06T09:06:03;9.02;;;4.97;;
52838;SDS011;39219;53.678;9.856;2023-08-06T09:08:31;9.68;;;5.30;;
52838;SDS011;39219;53.678;9.856;2023-08-06T09:10:59;9.20;;;5.18;;
52838;SDS011;39219;53.678;9.856;2023-08-06T09:13:26;9.60;;;4.90;;
52838;SDS011;39219;53.678;9.856;2023-08-06T09:15:53;8.40;;;5.00;;
52838;SDS011;39219;53.678;9.856;2023-08-06T09:18:24;9.25;;;5.20;;
52838;SDS011;39219;53.678;9.856;2023-08-06T09:20:52;11.35;;;5.57;;
52838;SDS011;39219;53.678;9.856;2023-08-06T09:23:18;10.93;;;5.18;;
52838;SDS011;39219;53.678;9.856;2023-08-06T09:25:45;10.20;;;5.28;;
52838;SDS011;39219;53.678;9.856;2023-08-06T09:28:11;11.43;;;5.70;;
52838;SDS011;39219;53.678;9.856;2023-08-06T09:30:38;10.55;;;5.28;;
52838;SDS011;39219;53.678;9.856;2023-08-06T09:33:08;9.55;;;5.60;;
52838;SDS011;39219;53.678;9.856;2023-08-06T09:35:35;9.73;;;5.47;;
52838;SDS011;39219;53.678;9.856;2023-08-06T09:38:06;8.38;;;5.07;;
52838;SDS011;39219;53.678;9.856;2023-08-06T09:40:35;10.40;;;5.72;;
52838;SDS011;39219;53.678;9.856;2023-08-06T09:43:01;11.20;;;5.47;;
52838;SDS011;39219;53.678;9.856;2023-08-06T09:45:29;10.73;;;5.72;;
52838;SDS011;39219;53.678;9.856;2023-08-06T09:47:56;9.95;;;5.32;;
52838;SDS011;39219;53.678;9.856;2023-08-06T09:50:23;10.82;;;5.72;;
52838;SDS011;39219;53.678;9.856;2023-08-06T09:52:52;10.95;;;5.50;;
52838;SDS011;39219;53.678;9.856;2023-08-06T09:55:20;12.45;;;6.28;;
52838;SDS011;39219;53.678;9.856;2023-08-06T09:57:48;11.90;;;6.32;;
52838;SDS011;39219;53.678;9.856;2023-08-06T10:00:15;10.10;;;5.88;;
52838;SDS011;39219;53.678;9.856;2023-08-06T10:02:42;9.57;;;5.82;;
52838;SDS011;39219;53.678;9.856;2023-08-06T10:05:09;10.80;;;5.78;;
52838;SDS011;39219;53.678;9.856;2023-08-06T10:07:35;11.82;;;6.25;;
52838;SDS011;39219;53.678;9.856;2023-08-06T10:10:02;12.30;;;6.45;;
52838;SDS011;39219;53.678;9.856;2023-08-06T10:12:31;11.52;;;6.40;;
52838;SDS011;39219;53.678;9.856;2023-08-06T10:14:59;13.65;;;6.60;;
52838;SDS011;39219;53.678;9.856;2023-08-06T10:17:26;11.60;;;6.75;;
52838;SDS011;39219;53.678;9.856;2023-08-06T10:19:52;11.93;;;6.50;;
52838;SDS011;39219;53.678;9.856;2023-08-06T10:22:20;10.32;;;6.60;;
52838;SDS011;39219;53.678;9.856;2023-08-06T10:24:50;13.18;;;7.47;;
52838;SDS011;39219;53.678;9.856;2023-08-06T10:27:27;15.75;;;7.25;;
52838;SDS011;39219;53.678;9.856;2023-08-06T10:29:55;12.40;;;7.32;;
52838;SDS011;39219;53.678;9.856;2023-08-06T10:32:21;13.70;;;7.75;;
52838;SDS011;39219;53.678;9.856;2023-08-06T10:35:09;13.13;;;8.10;;
52838;SDS011;39219;53.678;9.856;2023-08-06T10:37:54;12.85;;;7.78;;
52838;SDS011;39219;53.678;9.856;2023-08-06T10:40:23;13.32;;;8.13;;
52838;SDS011;39219;53.678;9.856;2023-08-06T10:42:51;12.02;;;7.90;;
52838;SDS011;39219;53.678;9.856;2023-08-06T10:45:19;13.05;;;7.97;;
52838;SDS011;39219;53.678;9.856;2023-08-06T10:47:45;15.23;;;8.45;;
52838;SDS011;39219;53.678;9.856;2023-08-06T10:50:12;13.20;;;7.85;;
52838;SDS011;39219;53.678;9.856;2023-08-06T10:52:41;12.48;;;7.93;;
52838;SDS011;39219;53.678;9.856;2023-08-06T10:55:07;13.63;;;7.95;;
52838;SDS011;39219;53.678;9.856;2023-08-06T10:57:34;10.98;;;8.00;;
52838;SDS011;39219;53.678;9.856;2023-08-06T11:00:00;14.25;;;8.18;;
52838;SDS011;39219;53.678;9.856;2023-08-06T11:02:29;12.55;;;8.15;;
52838;SDS011;39219;53.678;9.856;2023-08-06T11:05:04;13.45;;;8.40;;
52838;SDS011;39219;53.678;9.856;2023-08-06T11:07:30;13.55;;;8.30;;
52838;SDS011;39219;53.678;9.856;2023-08-06T11:10:00;13.95;;;8.55;;
52838;SDS011;39219;53.678;9.856;2023-08-06T11:12:26;12.52;;;8.38;;
52838;SDS011;39219;53.678;9.856;2023-08-06T11:14:53;13.88;;;8.02;;
52838;SDS011;39219;53.678;9.856;2023-08-06T11:17:20;12.95;;;8.38;;
52838;SDS011;39219;53.678;9.856;2023-08-06T11:19:48;14.82;;;7.95;;
52838;SDS011;39219;53.678;9.856;2023-08-06T11:22:15;10.48;;;7.35;;
52838;SDS011;39219;53.678;9.856;2023-08-06T11:24:42;11.95;;;7.82;;
52838;SDS011;39219;53.678;9.856;2023-08-06T11:27:11;14.45;;;7.50;;
52838;SDS011;39219;53.678;9.856;2023-08-06T11:29:38;12.75;;;7.50;;
52838;SDS011;39219;53.678;9.856;2023-08-06T11:32:05;11.10;;;7.47;;
52838;SDS011;39219;53.678;9.856;2023-08-06T11:34:31;13.15;;;7.75;;
52838;SDS011;39219;53.678;9.856;2023-08-06T11:36:59;11.82;;;6.97;;
52838;SDS011;39219;53.678;9.856;2023-08-06T11:39:25;13.35;;;7.90;;
52838;SDS011;39219;53.678;9.856;2023-08-06T11:41:52;11.63;;;7.90;;
52838;SDS011;39219;53.678;9.856;2023-08-06T11:44:18;11.23;;;7.57;;
52838;SDS011;39219;53.678;9.856;2023-08-06T11:46:51;12.35;;;7.30;;
52838;SDS011;39219;53.678;9.856;2023-08-06T11:49:18;11.10;;;7.13;;
52838;SDS011;39219;53.678;9.856;2023-08-06T11:51:46;12.27;;;6.97;;
52838;SDS011;39219;53.678;9.856;2023-08-06T11:54:14;11.73;;;7.03;;
52838;SDS011;39219;53.678;9.856;2023-08-06T11:56:40;10.38;;;6.43;;
52838;SDS011;39219;53.678;9.856;2023-08-06T11:59:06;11.57;;;6.68;;
52838;SDS011;39219;53.678;9.856;2023-08-06T12:01:35;11.07;;;6.82;;
52838;SDS011;39219;53.678;9.856;2023-08-06T12:04:01;9.43;;;6.40;;
52838;SDS011;39219;53.678;9.856;2023-08-06T12:06:30;12.57;;;6.18;;
52838;SDS011;39219;53.678;9.856;2023-08-06T12:08:56;11.18;;;6.00;;
52838;SDS011;39219;53.678;9.856;2023-08-06T12:11:24;13.57;;;6.40;;
52838;SDS011;39219;53.678;9.856;2023-08-06T12:13:50;9.75;;;6.30;;
52838;SDS011;39219;53.678;9.856;2023-08-06T12:16:17;9.25;;;5.50;;
52838;SDS011;39219;53.678;9.856;2023-08-06T12:18:43;13.13;;;7.10;;
52838;SDS011;39219;53.678;9.856;2023-08-06T12:21:10;11.45;;;6.45;;
52838;SDS011;39219;53.678;9.856;2023-08-06T12:23:36;9.27;;;5.95;;
52838;SDS011;39219;53.678;9.856;2023-08-06T12:26:02;11.23;;;6.40;;
52838;SDS011;39219;53.678;9.856;2023-08-06T12:28:30;10.30;;;6.22;;
52838;SDS011;39219;53.678;9.856;2023-08-06T12:30:56;9.40;;;5.90;;
52838;SDS011;39219;53.678;9.856;2023-08-06T12:33:22;11.00;;;6.00;;
52838;SDS011;39219;53.678;9.856;2023-08-06T12:35:49;9.63;;;5.85;;
52838;SDS011;39219;53.678;9.856;2023-08-06T12:38:15;10.18;;;5.82;;
52838;SDS011;39219;53.678;9.856;2023-08-06T12:40:41;9.55;;;6.00;;
52838;SDS011;39219;53.678;9.856;2023-08-06T12:43:08;12.32;;;6.13;;
52838;SDS011;39219;53.678;9.856;2023-08-06T12:45:35;8.60;;;5.55;;
52838;SDS011;39219;53.678;9.856;2023-08-06T12:48:02;9.40;;;5.50;;
52838;SDS011;39219;53.678;9.856;2023-08-06T12:50:28;8.65;;;5.38;;
52838;SDS011;39219;53.678;9.856;2023-08-06T12:52:54;9.45;;;5.53;;
52838;SDS011;39219;53.678;9.856;2023-08-06T12:55:21;9.23;;;5.60;;
52838;SDS011;39219;53.678;9.856;2023-08-06T12:57:47;9.38;;;5.45;;
52838;SDS011;39219;53.678;9.856;2023-08-06T13:00:13;11.40;;;6.07;;
52838;SDS011;39219;53.678;9.856;2023-08-06T13:02:41;8.90;;;5.47;;
52838;SDS011;39219;53.678;9.856;2023-08-06T13:05:07;9.75;;;5.90;;
52838;SDS011;39219;53.678;9.856;2023-08-06T13:07:34;8.55;;;5.30;;
52838;SDS011;39219;53.678;9.856;2023-08-06T13:10:01;9.00;;;5.35;;
52838;SDS011;39219;53.678;9.856;2023-08-06T13:12:27;8.95;;;5.38;;
52838;SDS011;39219;53.678;9.856;2023-08-06T13:14:54;11.05;;;5.38;;
52838;SDS011;39219;53.678;9.856;2023-08-06T13:17:22;9.02;;;5.50;;
52838;SDS011;39219;53.678;9.856;2023-08-06T13:19:50;7.53;;;5.40;;
52838;SDS011;39219;53.678;9.856;2023-08-06T13:22:16;9.43;;;5.50;;
52838;SDS011;39219;53.678;9.856;2023-08-06T13:24:42;7.95;;;4.50;;
52838;SDS011;39219;53.678;9.856;2023-08-06T13:27:08;6.97;;;3.80;;
52838;SDS011;39219;53.678;9.856;2023-08-06T13:29:35;6.85;;;3.60;;
52838;SDS011;39219;53.678;9.856;2023-08-06T13:32:02;6.45;;;3.63;;
52838;SDS011;39219;53.678;9.856;2023-08-06T13:34:28;7.07;;;3.60;;
52838;SDS011;39219;53.678;9.856;2023-08-06T13:36:56;7.32;;;3.63;;
52838;SDS011;39219;53.678;9.856;2023-08-06T13:39:22;4.72;;;3.40;;
52838;SDS011;39219;53.678;9.856;2023-08-06T13:41:48;6.72;;;3.60;;
52838;SDS011;39219;53.678;9.856;2023-08-06T13:44:14;5.00;;;3.40;;
52838;SDS011;39219;53.678;9.856;2023-08-06T13:46:41;5.30;;;3.58;;
52838;SDS011;39219;53.678;9.856;2023-08-06T13:49:07;5.95;;;3.60;;
52838;SDS011;39219;53.678;9.856;2023-08-06T13:51:33;5.20;;;3.53;;
52838;SDS011;39219;53.678;9.856;2023-08-06T13:54:02;6.68;;;3.90;;
52838;SDS011;39219;53.678;9.856;2023-08-06T13:56:28;6.72;;;3.78;;
52838;SDS011;39219;53.678;9.856;2023-08-06T13:58:55;6.82;;;3.70;;
52838;SDS011;39219;53.678;9.856;2023-08-06T14:01:21;6.70;;;3.92;;
52838;SDS011;39219;53.678;9.856;2023-08-06T14:03:48;7.15;;;3.75;;
52838;SDS011;39219;53.678;9.856;2023-08-06T14:06:14;6.45;;;4.07;;
52838;SDS011;39219;53.678;9.856;2023-08-06T14:08:40;8.45;;;4.15;;
52838;SDS011;39219;53.678;9.856;2023-08-06T14:11:08;7.70;;;4.00;;
52838;SDS011;39219;53.678;9.856;2023-08-06T14:13:35;7.32;;;3.90;;
52838;SDS011;39219;53.678;9.856;2023-08-06T14:16:02;6.25;;;3.85;;
52838;SDS011;39219;53.678;9.856;2023-08-06T14:18:28;6.93;;;4.00;;
52838;SDS011;39219;53.678;9.856;2023-08-06T14:20:54;6.28;;;3.65;;
52838;SDS011;39219;53.678;9.856;2023-08-06T14:23:20;5.97;;;3.55;;
52838;SDS011;39219;53.678;9.856;2023-08-06T14:25:47;5.85;;;3.70;;
52838;SDS011;39219;53.678;9.856;2023-08-06T14:28:14;8.25;;;3.83;;
52838;SDS011;39219;53.678;9.856;2023-08-06T14:30:41;6.20;;;3.75;;
52838;SDS011;39219;53.678;9.856;2023-08-06T14:33:07;4.85;;;3.40;;
52838;SDS011;39219;53.678;9.856;2023-08-06T14:35:33;5.72;;;3.40;;
52838;SDS011;39219;53.678;9.856;2023-08-06T14:37:59;5.50;;;3.50;;
52838;SDS011;39219;53.678;9.856;2023-08-06T14:40:26;6.88;;;3.50;;